KSOW/SOW METAR and TAF weather

Enter ICAO airport designator
Station Type Date Time Source
KSOW METAR 2020/01/17 22:35 UTC NOAA

KSOW 172235Z AUTO 23011KT 10SM CLR 07/M00 A3018 RMK AO2


Station Type Date Time Source
KSOW Decoded METAR 2020/01/17 22:35 UTC NOAA

Show Low, Show Low Regional Airport, AZ, United States (KSOW) 34-15-55N 110-00-20W
Jan 17, 2020 - 05:35 PM EST / 2020.01.17 2235 UTC
Wind: from the SW (230 degrees) at 13 MPH (11 KT):0
Visibility: 10 mile(s):0
Sky conditions: clear
Temperature: 44 F (7 C)
Dew Point: 32 F (0 C)
Relative Humidity: 60%
Pressure (altimeter): 30.18 in. Hg (1022 hPa)
ob: KSOW 172235Z AUTO 23011KT 10SM CLR 07/M00 A3018 RMK AO2
cycle: 22

Station Type Date Time Source
KSOW TAF UTC NOAA

Error!

Example: see airport list